Time;durP1;ratioP1;P1;durP2;ratioP2;P2;SDS_P1;SDS_P2;PMS_P1;PMS_P2;Temp;Humidity;BMP_temperature;BMP_pressure;BME280_temperature;BME280_humidity;BME280_pressure;Samples;Min_cycle;Max_cycle;Signal;HPM_P1;HPM_P2
2023/04/29 00:00:28;;;;;;;7.72;5.00;;;12.90;99.90;;;;;;2621294;46;20118;31
2023/04/29 00:03:12;;;;;;;10.48;5.35;;;13.00;99.90;;;;;;2603080;54;20031;31
2023/04/29 00:05:57;;;;;;;12.55;6.05;;;12.90;99.90;;;;;;2603355;54;20026;31
2023/04/29 00:08:52;;;;;;;12.55;6.35;;;12.90;99.90;;;;;;2603022;54;20101;31
2023/04/29 00:11:39;;;;;;;11.43;6.10;;;13.00;99.90;;;;;;2621619;46;20745;31
2023/04/29 00:14:23;;;;;;;9.15;6.57;;;13.00;99.90;;;;;;2602254;54;20101;31
2023/04/29 00:17:02;;;;;;;8.32;5.70;;;12.90;99.90;;;;;;2603099;54;20034;31
2023/04/29 00:19:42;;;;;;;9.90;6.35;;;12.90;99.90;;;;;;2602995;54;20043;31
2023/04/29 00:22:22;;;;;;;8.43;5.80;;;12.90;99.90;;;;;;2621154;46;21399;31
2023/04/29 00:25:19;;;;;;;10.32;6.00;;;12.90;99.90;;;;;;2603207;54;21459;31
2023/04/29 00:28:00;;;;;;;11.15;5.90;;;12.90;99.90;;;;;;2603075;54;21450;31
2023/04/29 00:30:45;;;;;;;9.30;5.55;;;12.80;99.90;;;;;;2603052;54;20022;31
2023/04/29 00:33:32;;;;;;;10.55;6.05;;;12.80;99.90;;;;;;2621338;46;20038;31
2023/04/29 00:36:16;;;;;;;10.52;5.78;;;12.80;99.90;;;;;;2621092;46;20903;31
2023/04/29 00:39:00;;;;;;;10.18;6.72;;;12.80;99.90;;;;;;2603122;54;19957;31
2023/04/29 00:41:56;;;;;;;10.90;6.38;;;12.80;99.90;;;;;;2602689;54;21129;31
2023/04/29 00:44:34;;;;;;;12.65;6.55;;;12.80;99.90;;;;;;2603167;54;20832;31
2023/04/29 00:47:23;;;;;;;12.77;7.20;;;12.70;99.90;;;;;;2603072;54;20042;31
2023/04/29 00:50:06;;;;;;;14.67;6.80;;;12.70;99.90;;;;;;2602908;54;20026;31
2023/04/29 00:53:04;;;;;;;;;;;;;;;;;;;;;
2023/04/29 00:55:42;;;;;;;12.20;7.25;;;12.60;99.90;;;;;;2602735;54;19934;31
2023/04/29 00:58:32;;;;;;;11.27;7.60;;;12.70;99.90;;;;;;2602700;54;20932;31
2023/04/29 01:01:17;;;;;;;14.20;8.20;;;12.50;99.90;;;;;;2602801;54;20042;31
2023/04/29 01:04:03;;;;;;;14.70;8.10;;;12.60;99.90;;;;;;2602976;54;20108;31
2023/04/29 01:06:55;;;;;;;12.90;7.35;;;12.50;99.90;;;;;;2602693;54;20038;31
2023/04/29 01:09:42;;;;;;;15.25;7.82;;;12.30;99.90;;;;;;2621511;47;20043;31
2023/04/29 01:12:32;;;;;;;12.63;8.07;;;12.30;99.90;;;;;;2602832;54;20042;31
2023/04/29 01:15:17;;;;;;;13.23;8.68;;;12.20;99.90;;;;;;2602937;54;20907;31
2023/04/29 01:18:10;;;;;;;16.10;8.83;;;12.20;99.90;;;;;;2621195;47;20142;31
2023/04/29 01:20:58;;;;;;;16.17;8.27;;;12.20;99.90;;;;;;2602665;54;20027;31
2023/04/29 01:23:39;;;;;;;14.98;9.10;;;12.10;99.90;;;;;;2602860;54;20258;31
2023/04/29 01:26:19;;;;;;;15.27;9.70;;;12.10;99.90;;;;;;2629492;31;20544;31
2023/04/29 01:29:14;;;;;;;14.70;9.18;;;12.10;99.90;;;;;;2602592;54;20081;31
2023/04/29 01:32:00;;;;;;;13.97;9.43;;;12.00;99.90;;;;;;2602793;54;20157;31
2023/04/29 01:34:44;;;;;;;12.93;9.30;;;12.00;99.90;;;;;;2602548;54;20038;31
2023/04/29 01:37:40;;;;;;;15.52;9.88;;;12.00;99.90;;;;;;2602651;54;20046;31
2023/04/29 01:40:36;;;;;;;19.42;10.73;;;12.00;99.90;;;;;;2602709;54;20880;31
2023/04/29 01:43:19;;;;;;;18.90;9.73;;;12.00;99.90;;;;;;2621249;47;20786;31
2023/04/29 01:45:59;;;;;;;13.80;9.80;;;11.90;99.90;;;;;;2602655;54;20894;31
2023/04/29 01:48:37;;;;;;;19.92;10.20;;;11.90;99.90;;;;;;2602737;54;20165;31
2023/04/29 01:51:15;;;;;;;16.60;9.27;;;11.90;99.90;;;;;;2602522;54;20030;31
2023/04/29 01:54:07;;;;;;;18.63;9.90;;;11.90;99.90;;;;;;2602954;54;20038;31
2023/04/29 01:56:46;;;;;;;19.83;10.23;;;11.90;99.90;;;;;;2603617;54;20765;31
2023/04/29 01:59:47;;;;;;;16.15;9.88;;;11.90;99.90;;;;;;2603212;54;20669;31
2023/04/29 02:02:51;;;;;;;18.17;10.75;;;11.90;99.90;;;;;;2701220;39;20311;31
2023/04/29 02:05:52;;;;;;;17.75;9.85;;;11.90;99.90;;;;;;2622023;46;20925;31
2023/04/29 02:08:28;;;;;;;14.20;9.50;;;11.80;99.90;;;;;;2620441;46;20935;31
2023/04/29 02:11:12;;;;;;;16.93;10.33;;;11.80;99.90;;;;;;2603375;54;21334;31
2023/04/29 02:14:00;;;;;;;14.38;8.68;;;11.80;99.90;;;;;;2603621;54;20026;31
2023/04/29 02:16:52;;;;;;;11.75;8.70;;;11.80;99.90;;;;;;2621553;46;20819;31
2023/04/29 02:19:29;;;;;;;14.53;9.63;;;11.70;99.90;;;;;;2603317;54;20046;31
2023/04/29 02:22:07;;;;;;;15.53;10.10;;;11.70;99.90;;;;;;2603116;54;20026;31
2023/04/29 02:24:46;;;;;;;16.15;10.70;;;11.70;99.90;;;;;;2603213;54;20329;31
2023/04/29 02:27:26;;;;;;;15.23;10.15;;;11.70;99.90;;;;;;2603263;54;25044;31
2023/04/29 02:30:10;;;;;;;18.27;10.60;;;11.70;99.90;;;;;;2616701;46;20114;31
2023/04/29 02:32:53;;;;;;;17.52;11.02;;;11.60;99.90;;;;;;2603775;54;20027;31
2023/04/29 02:35:37;;;;;;;14.65;10.95;;;11.60;99.90;;;;;;2619232;46;19937;31
2023/04/29 02:38:24;;;;;;;15.50;10.10;;;11.60;99.90;;;;;;2621558;46;20958;31
2023/04/29 02:41:00;;;;;;;14.57;10.27;;;11.60;99.90;;;;;;2618977;39;20383;31
2023/04/29 02:43:36;;;;;;;14.45;9.52;;;11.60;99.90;;;;;;2603108;54;21212;31
2023/04/29 02:46:17;;;;;;;16.70;10.38;;;11.50;99.90;;;;;;2607090;39;21539;31
2023/04/29 02:48:54;;;;;;;21.75;10.63;;;11.60;99.90;;;;;;2603252;54;20874;31
2023/04/29 02:51:33;;;;;;;15.70;11.25;;;11.50;99.90;;;;;;2621715;46;20034;31
2023/04/29 02:54:10;;;;;;;16.03;11.20;;;11.50;99.90;;;;;;2603212;54;21141;31
2023/04/29 02:56:48;;;;;;;19.10;11.90;;;11.50;99.90;;;;;;2603207;54;21199;31
2023/04/29 02:59:27;;;;;;;;;;;11.50;99.90;;;;;;2621972;46;20026;31
2023/04/29 03:02:06;;;;;;;15.65;10.93;;;11.50;99.90;;;;;;2603012;54;20856;31
2023/04/29 03:04:45;;;;;;;19.70;11.40;;;11.50;99.90;;;;;;2603045;54;20093;31
2023/04/29 03:07:28;;;;;;;18.15;11.43;;;11.50;99.90;;;;;;2621684;46;20031;31
2023/04/29 03:10:05;;;;;;;16.95;11.32;;;11.50;99.90;;;;;;2603055;54;20903;31
2023/04/29 03:12:51;;;;;;;16.40;11.80;;;11.40;99.90;;;;;;2602577;54;20052;31
2023/04/29 03:15:31;;;;;;;17.85;11.45;;;11.40;99.90;;;;;;2603137;54;20053;31
2023/04/29 03:18:11;;;;;;;22.25;11.60;;;11.40;99.90;;;;;;2603321;54;20226;31
2023/04/29 03:20:49;;;;;;;15.18;10.63;;;11.40;99.90;;;;;;2603053;54;20902;31
2023/04/29 03:23:26;;;;;;;18.25;11.35;;;11.40;99.90;;;;;;2603125;54;20088;31
2023/04/29 03:26:14;;;;;;;15.60;9.50;;;11.40;99.90;;;;;;2612794;46;20242;31
2023/04/29 03:28:55;;;;;;;16.55;11.05;;;11.30;99.90;;;;;;2603064;54;20967;31
2023/04/29 03:31:27;;;;;;;14.35;10.20;;;11.30;99.90;;;;;;2632518;54;20002;-92
2023/04/29 03:36:41;;;;;;;15.00;10.90;;;11.30;99.90;;;;;;2613232;46;20026;31
2023/04/29 03:39:18;;;;;;;15.65;10.43;;;11.30;99.90;;;;;;2602972;54;20454;31
2023/04/29 03:41:58;;;;;;;13.27;9.70;;;11.20;99.90;;;;;;2602931;54;20103;31
2023/04/29 03:44:38;;;;;;;16.05;11.40;;;11.10;99.90;;;;;;2659449;39;20330;31
2023/04/29 03:47:16;;;;;;;16.33;9.60;;;11.10;99.90;;;;;;2621501;46;20033;31
2023/04/29 03:50:13;;;;;;;16.00;9.30;;;11.10;99.90;;;;;;2603113;54;20238;31
2023/04/29 03:53:23;;;;;;;15.25;9.65;;;11.10;99.90;;;;;;2603540;54;20060;31
2023/04/29 03:57:01;;;;;;;14.48;9.27;;;11.10;99.90;;;;;;2686516;39;20971;31
2023/04/29 04:03:13;;;;;;;12.83;8.37;;;11.00;99.90;;;;;;2603011;54;20022;31
2023/04/29 04:09:44;;;;;;;14.10;8.98;;;11.00;99.90;;;;;;2602956;54;20768;31
2023/04/29 04:22:35;;;;;;;14.75;9.82;;;11.00;99.90;;;;;;2603009;54;20256;31
2023/04/29 04:38:18;;;;;;;16.05;10.27;;;11.10;99.90;;;;;;2602824;54;21095;31
2023/04/29 04:41:33;;;;;;;14.50;10.33;;;11.20;99.90;;;;;;2602931;54;20826;31
2023/04/29 04:51:20;;;;;;;12.68;9.30;;;11.40;99.90;;;;;;2602808;54;20121;31
2023/04/29 04:58:06;;;;;;;13.85;9.90;;;11.40;99.90;;;;;;2632055;39;22199;31
2023/04/29 05:07:39;;;;;;;11.00;7.88;;;11.50;99.90;;;;;;2603125;54;19934;31
2023/04/29 05:11:11;;;;;;;13.68;9.02;;;11.50;99.90;;;;;;2602746;54;20030;31
2023/04/29 05:13:59;;;;;;;14.25;8.15;;;11.50;99.90;;;;;;2602806;54;20029;31
2023/04/29 05:23:23;;;;;;;12.93;7.97;;;11.70;99.90;;;;;;2602814;54;20026;31
2023/04/29 05:26:33;;;;;;;12.68;8.68;;;11.80;99.90;;;;;;2602537;54;20896;31
2023/04/29 07:09:46;;;;;;;15.15;10.20;;;13.90;99.90;;;;;;2602914;54;20038;31
2023/04/29 07:12:52;;;;;;;18.08;9.63;;;13.90;99.90;;;;;;2603256;54;21142;31
2023/04/29 07:16:02;;;;;;;16.27;10.68;;;13.80;99.90;;;;;;2603156;54;20972;31
2023/04/29 07:21:49;;;;;;;16.80;11.18;;;13.60;99.90;;;;;;2603169;54;20215;31
2023/04/29 07:33:27;;;;;;;18.25;11.18;;;13.40;99.90;;;;;;2602799;54;20071;31
2023/04/29 07:39:44;;;;;;;15.00;10.93;;;13.50;99.90;;;;;;2627988;46;20027;31
2023/04/29 07:55:30;;;;;;;15.70;12.55;;;13.60;99.90;;;;;;2603003;54;20042;31
2023/04/29 07:58:54;;;;;;;20.15;13.57;;;13.60;99.90;;;;;;2601772;54;20896;31
2023/04/29 08:01:56;;;;;;;16.85;12.50;;;13.60;99.90;;;;;;2603050;54;20053;31
2023/04/29 08:04:54;;;;;;;16.77;12.93;;;13.50;99.90;;;;;;2603024;54;20046;31
2023/04/29 08:37:29;;;;;;;21.90;16.80;;;13.10;99.90;;;;;;2603042;54;20022;31
2023/04/29 08:40:39;;;;;;;29.48;18.20;;;13.10;99.90;;;;;;2602096;54;20085;31
2023/04/29 08:43:34;;;;;;;22.25;13.80;;;13.10;99.90;;;;;;2603214;54;20022;31
2023/04/29 14:07:11;;;;;;;3.13;2.50;;;18.10;99.90;;;;;;2602738;54;20030;31
2023/04/29 15:11:05;;;;;;;15.20;7.22;;;17.00;99.90;;;;;;2603220;54;20972;31
2023/04/29 15:14:00;;;;;;;10.30;4.33;;;16.60;99.90;;;;;;2602575;54;20744;31
2023/04/29 15:16:49;;;;;;;5.00;2.40;;;16.30;99.90;;;;;;2603291;54;20421;31
2023/04/29 15:19:41;;;;;;;5.07;4.03;;;16.00;99.90;;;;;;2621572;46;20084;31
2023/04/29 15:22:21;;;;;;;8.73;6.65;;;15.80;99.90;;;;;;2603052;54;20034;31
2023/04/29 15:25:10;;;;;;;8.65;6.45;;;15.50;99.90;;;;;;2603283;54;20771;31
2023/04/29 15:27:47;;;;;;;11.98;8.52;;;15.20;99.90;;;;;;2621100;46;20115;31
2023/04/29 15:30:29;;;;;;;10.15;8.20;;;15.10;99.90;;;;;;2602973;54;20049;31
2023/04/29 15:36:01;;;;;;;10.70;8.57;;;14.80;99.90;;;;;;2603245;54;20042;31
2023/04/29 15:38:40;;;;;;;12.95;8.40;;;14.80;99.90;;;;;;2603099;54;20049;31
2023/04/29 15:41:34;;;;;;;;;;;;;;;;;;;;;
2023/04/29 15:44:13;;;;;;;10.35;9.30;;;14.70;99.90;;;;;;2602321;54;20034;31
2023/04/29 15:46:54;;;;;;;12.18;8.65;;;14.70;99.90;;;;;;2603067;54;20852;31
2023/04/29 15:52:33;;;;;;;10.50;8.17;;;14.80;99.90;;;;;;2603079;54;20081;31
2023/04/29 15:58:31;;;;;;;11.60;9.30;;;14.70;99.90;;;;;;2603211;54;20072;31
2023/04/29 16:10:40;;;;;;;12.63;9.98;;;14.40;99.90;;;;;;2626922;46;20245;31
2023/04/29 16:13:42;;;;;;;14.63;9.32;;;14.40;99.90;;;;;;2602434;54;20064;31
2023/04/29 16:17:20;;;;;;;11.32;9.52;;;14.40;99.90;;;;;;2603188;54;20880;31
2023/04/29 16:23:04;;;;;;;10.85;9.52;;;14.30;99.90;;;;;;2621411;46;20034;31
2023/04/29 16:25:46;;;;;;;14.50;10.60;;;14.40;99.90;;;;;;2602997;54;20022;31
2023/04/29 16:28:31;;;;;;;12.02;10.05;;;14.40;99.90;;;;;;2607856;39;20346;31
2023/04/29 16:31:23;;;;;;;14.30;11.45;;;14.30;99.90;;;;;;2602685;54;20867;31
2023/04/29 16:34:04;;;;;;;16.92;12.52;;;14.30;99.90;;;;;;2603141;54;20042;31
2023/04/29 16:37:02;;;;;;;15.10;11.63;;;14.20;99.90;;;;;;2603160;54;20912;31
2023/04/29 17:11:23;;;;;;;11.13;9.90;;;13.80;99.90;;;;;;2601906;54;20957;31
2023/04/29 18:03:07;;;;;;;11.07;7.97;;;12.60;99.90;;;;;;2603349;54;20517;31
2023/04/29 18:31:57;;;;;;;;;;;;;;;;;;;;;
2023/04/29 18:34:47;;;;;;;42.20;27.90;;;12.30;99.90;;;;;;2603601;54;20114;31
2023/04/29 18:44:03;;;;;;;39.70;28.55;;;12.00;99.90;;;;;;2621155;46;20145;31
2023/04/29 18:59:17;;;;;;;;;;;;;;;;;;;;;
2023/04/29 19:22:53;;;;;;;45.67;32.03;;;11.90;99.90;;;;;;2603035;54;20950;31
2023/04/29 21:04:39;;;;;;;42.72;29.25;;;11.50;99.90;;;;;;2602691;54;20086;31
2023/04/29 21:07:22;;;;;;;19.10;15.25;;;11.50;99.90;;;;;;2602923;54;20870;31
